首页
METAR-TAF:

METAR-TAF

机场 :

阿讷西, 法国

纬度: 45-55-45N, 经度: 006-05-56E, 海拔: 463米

当前天气观测

该预报发布于26分钟前的07:30 UTC
静风
温度 1°C
湿度 100%
气压 1005 hPa
能见度10公里或以上
多云层高于2100英尺
阴天层高于2700英尺

METAR: LFLP 170730Z AUTO 00000KT 9999 BKN021 OVC027 01/01 Q1005 NOSIG

时间: 08:56 (07:56 UTC)

预报

该预报发布于5小时和56分钟前的02:00 UTC
预报有效从17日的 03点(UTC)到 18日的 03点(UTC)
风速3节,风向多变
能见度10公里或以上
1500米以下无云,无积雨云
几率 30% :
短暂存在
从 17日的 03点(UTC)到 17日的 07点(UTC)
能見度: 3000
轻雾
成为
从 17日的 07点(UTC)到 17日的 09点(UTC)
多云层高于2500英尺
短暂存在
从 17日的 10点(UTC)到 17日的 13点(UTC)
风速6节,风向西南
能見度: 4000
多云层高于600英尺
多云层高于1400英尺
小雨, 雪
短暂存在
从 17日的 13点(UTC)到 18日的 03点(UTC)
能見度: 3000
阴天层高于200英尺
小雪
几率 40% :
短暂存在
从 17日的 14点(UTC)到 17日的 22点(UTC)
能見度: 1500

TAF: LFLP 170200Z 1703/1803 VRB03KT CAVOK PROB30 TEMPO 1703/1707 3000 BR BECMG 1707/1709 BKN025 TEMPO 1710/1713 22006KT 4000 -RASN BKN006 BKN014 TEMPO 1713/1803 3000 -SN OVC002 PROB40 TEMPO 1714/1722 1500 SN

超过4000个机场的气象观测和天气预报(METAR&TAF报告)。

可查询的气象台以黄色和红色小点在地图上表示。

将鼠标移到小点上方,可查看气象台名称。

然后点击查看天气观测和预报。

如需切换地图:点击带黑十字的绿色按钮放大地图;点击带横线的绿色按钮缩小地图;或者点击绿色箭头查看邻近地区的地图。


METAR-TAF: